LLBG

Ben Gurion International Airport

Tel Aviv, Israel
METAR LLBG 130120Z VRB03KT 9999 SCT040 16/10 Q1021 NOSIG
Observed Flight Rules
Dec-13 @ 01:20 UTC (40 minutes ago) Visual Flight Rules
Wind Visibility Clouds
Variable at 3 knots 10,000+ meters
  • Scattered at 4,000' AGL
Temperatures Readings
Current 16°C / 61°F
Dewpoint 10°C / 50°F
Humidity 68%
Altimeter 30.15" Hg
Pressure 1021 hPa
Elevation 49
METAR LLBG 130120Z VRB03KT 9999 SCT040 16/10 Q1021 NOSIG
Observed Flight Rules
Dec-13 @ 01:20 UTC
(40 minutes ago)
VFR
Wind Visibility
Variable at 3 knots 10,000+ meters
Clouds
  • Scattered at 4,000' AGL
Temperature Dewpoint
16°C / 61°F 10°C / 50°F
Humidity Altimeter Pressure
68% 30.15" Hg 1021 hPa